sensor_id;sensor_type;location;lat;lon;timestamp;temperature;humidity
53264;DHT22;39153;52.680;6.172;2022-09-13T00:00:36;18.60;99.90
53264;DHT22;39153;52.680;6.172;2022-09-13T00:03:02;18.60;99.90
53264;DHT22;39153;52.680;6.172;2022-09-13T00:05:27;18.50;99.90
53264;DHT22;39153;52.680;6.172;2022-09-13T00:07:53;18.50;99.90
53264;DHT22;39153;52.680;6.172;2022-09-13T00:10:19;18.50;99.90
53264;DHT22;39153;52.680;6.172;2022-09-13T00:12:46;18.50;99.90
53264;DHT22;39153;52.680;6.172;2022-09-13T00:15:12;18.50;99.90
53264;DHT22;39153;52.680;6.172;2022-09-13T00:17:38;18.50;99.90
53264;DHT22;39153;52.680;6.172;2022-09-13T00:20:04;18.60;99.90
53264;DHT22;39153;52.680;6.172;2022-09-13T00:22:30;18.60;99.90
53264;DHT22;39153;52.680;6.172;2022-09-13T00:24:56;18.70;99.90
53264;DHT22;39153;52.680;6.172;2022-09-13T00:27:21;18.70;99.90
53264;DHT22;39153;52.680;6.172;2022-09-13T00:29:47;18.60;99.90
53264;DHT22;39153;52.680;6.172;2022-09-13T00:32:12;18.70;99.90
53264;DHT22;39153;52.680;6.172;2022-09-13T00:34:38;18.70;99.90
53264;DHT22;39153;52.680;6.172;2022-09-13T00:37:04;18.80;99.90
53264;DHT22;39153;52.680;6.172;2022-09-13T00:39:30;18.70;99.90
53264;DHT22;39153;52.680;6.172;2022-09-13T00:41:55;18.60;99.90
53264;DHT22;39153;52.680;6.172;2022-09-13T00:44:51;18.70;99.90
53264;DHT22;39153;52.680;6.172;2022-09-13T00:49:51;18.70;99.90
53264;DHT22;39153;52.680;6.172;2022-09-13T00:52:19;18.80;99.90
53264;DHT22;39153;52.680;6.172;2022-09-13T00:54:54;18.70;99.90
53264;DHT22;39153;52.680;6.172;2022-09-13T00:57:21;18.80;99.90
53264;DHT22;39153;52.680;6.172;2022-09-13T01:00:12;18.70;99.90
53264;DHT22;39153;52.680;6.172;2022-09-13T01:03:03;18.80;99.90
53264;DHT22;39153;52.680;6.172;2022-09-13T01:05:43;18.70;99.90
53264;DHT22;39153;52.680;6.172;2022-09-13T01:08:11;18.70;99.90
53264;DHT22;39153;52.680;6.172;2022-09-13T01:10:46;18.70;99.90
53264;DHT22;39153;52.680;6.172;2022-09-13T01:13:25;18.80;99.90
53264;DHT22;39153;52.680;6.172;2022-09-13T01:15:51;18.80;99.90
53264;DHT22;39153;52.680;6.172;2022-09-13T01:18:17;18.80;99.90
53264;DHT22;39153;52.680;6.172;2022-09-13T01:23:46;18.60;99.90
53264;DHT22;39153;52.680;6.172;2022-09-13T01:29:05;18.60;99.90
53264;DHT22;39153;52.680;6.172;2022-09-13T01:34:45;18.60;99.90
53264;DHT22;39153;52.680;6.172;2022-09-13T01:50:46;18.50;99.90
53264;DHT22;39153;52.680;6.172;2022-09-13T01:56:02;18.40;99.90
53264;DHT22;39153;52.680;6.172;2022-09-13T01:58:43;18.40;99.90
53264;DHT22;39153;52.680;6.172;2022-09-13T02:01:15;18.50;99.90
53264;DHT22;39153;52.680;6.172;2022-09-13T02:03:56;18.40;99.90
53264;DHT22;39153;52.680;6.172;2022-09-13T02:06:37;18.50;99.90
53264;DHT22;39153;52.680;6.172;2022-09-13T02:09:18;18.40;99.90
53264;DHT22;39153;52.680;6.172;2022-09-13T02:11:49;18.30;99.90
53264;DHT22;39153;52.680;6.172;2022-09-13T02:14:18;18.40;99.90
53264;DHT22;39153;52.680;6.172;2022-09-13T02:16:52;18.30;99.90
53264;DHT22;39153;52.680;6.172;2022-09-13T02:19:40;18.40;99.90
53264;DHT22;39153;52.680;6.172;2022-09-13T02:22:07;18.30;99.90
53264;DHT22;39153;52.680;6.172;2022-09-13T02:24:41;18.40;99.90
53264;DHT22;39153;52.680;6.172;2022-09-13T02:27:13;18.30;99.90
53264;DHT22;39153;52.680;6.172;2022-09-13T02:29:43;18.30;99.90
53264;DHT22;39153;52.680;6.172;2022-09-13T02:32:21;18.30;99.90
53264;DHT22;39153;52.680;6.172;2022-09-13T02:34:51;18.30;99.90
53264;DHT22;39153;52.680;6.172;2022-09-13T02:37:19;18.40;99.90
53264;DHT22;39153;52.680;6.172;2022-09-13T02:39:52;18.40;99.90
53264;DHT22;39153;52.680;6.172;2022-09-13T02:42:38;18.30;99.90
53264;DHT22;39153;52.680;6.172;2022-09-13T02:45:07;18.30;99.90
53264;DHT22;39153;52.680;6.172;2022-09-13T02:47:58;18.30;99.90
53264;DHT22;39153;52.680;6.172;2022-09-13T02:56:04;18.30;99.90
53264;DHT22;39153;52.680;6.172;2022-09-13T02:58:55;18.40;99.90
53264;DHT22;39153;52.680;6.172;2022-09-13T03:01:22;18.40;99.90
53264;DHT22;39153;52.680;6.172;2022-09-13T03:03:51;18.20;99.90
53264;DHT22;39153;52.680;6.172;2022-09-13T03:06:25;18.20;99.90
53264;DHT22;39153;52.680;6.172;2022-09-13T03:08:53;18.30;99.90
53264;DHT22;39153;52.680;6.172;2022-09-13T03:22:52;18.30;99.90
53264;DHT22;39153;52.680;6.172;2022-09-13T03:25:40;18.30;99.90
53264;DHT22;39153;52.680;6.172;2022-09-13T03:39:40;18.20;99.90
53264;DHT22;39153;52.680;6.172;2022-09-13T03:42:21;18.20;99.90
53264;DHT22;39153;52.680;6.172;2022-09-13T03:44:49;18.30;99.90
53264;DHT22;39153;52.680;6.172;2022-09-13T03:47:17;18.20;99.90
53264;DHT22;39153;52.680;6.172;2022-09-13T03:49:43;18.20;99.90
53264;DHT22;39153;52.680;6.172;2022-09-13T03:52:10;18.20;99.90
53264;DHT22;39153;52.680;6.172;2022-09-13T03:54:37;18.20;99.90
53264;DHT22;39153;52.680;6.172;2022-09-13T03:57:10;18.30;99.90
53264;DHT22;39153;52.680;6.172;2022-09-13T03:59:40;18.40;99.90
53264;DHT22;39153;52.680;6.172;2022-09-13T04:02:07;18.40;99.90
53264;DHT22;39153;52.680;6.172;2022-09-13T04:04:40;18.30;99.90
53264;DHT22;39153;52.680;6.172;2022-09-13T04:07:07;18.30;99.90
53264;DHT22;39153;52.680;6.172;2022-09-13T04:09:33;18.40;99.90
53264;DHT22;39153;52.680;6.172;2022-09-13T04:11:58;18.40;99.90
53264;DHT22;39153;52.680;6.172;2022-09-13T04:14:24;18.20;99.90
53264;DHT22;39153;52.680;6.172;2022-09-13T04:16:53;18.20;99.90
53264;DHT22;39153;52.680;6.172;2022-09-13T04:19:19;18.40;99.90
53264;DHT22;39153;52.680;6.172;2022-09-13T04:21:49;18.20;99.90
53264;DHT22;39153;52.680;6.172;2022-09-13T04:24:17;18.20;99.90
53264;DHT22;39153;52.680;6.172;2022-09-13T04:26:44;18.30;99.90
53264;DHT22;39153;52.680;6.172;2022-09-13T04:29:10;18.10;99.90
53264;DHT22;39153;52.680;6.172;2022-09-13T04:31:36;18.20;99.90
53264;DHT22;39153;52.680;6.172;2022-09-13T04:34:02;18.10;99.90
53264;DHT22;39153;52.680;6.172;2022-09-13T04:36:28;18.30;99.90
53264;DHT22;39153;52.680;6.172;2022-09-13T04:38:54;18.10;99.90
53264;DHT22;39153;52.680;6.172;2022-09-13T04:41:20;18.20;99.90
53264;DHT22;39153;52.680;6.172;2022-09-13T04:43:49;18.10;99.90
53264;DHT22;39153;52.680;6.172;2022-09-13T04:46:15;18.10;99.90
53264;DHT22;39153;52.680;6.172;2022-09-13T04:48:41;18.10;99.90
53264;DHT22;39153;52.680;6.172;2022-09-13T04:51:07;18.20;99.90
53264;DHT22;39153;52.680;6.172;2022-09-13T04:53:33;18.20;99.90
53264;DHT22;39153;52.680;6.172;2022-09-13T04:56:01;18.10;99.90
53264;DHT22;39153;52.680;6.172;2022-09-13T04:58:26;18.20;99.90
53264;DHT22;39153;52.680;6.172;2022-09-13T05:00:52;18.20;99.90
53264;DHT22;39153;52.680;6.172;2022-09-13T05:03:21;18.20;99.90
53264;DHT22;39153;52.680;6.172;2022-09-13T05:05:47;18.30;99.90
53264;DHT22;39153;52.680;6.172;2022-09-13T05:08:13;18.20;99.90
53264;DHT22;39153;52.680;6.172;2022-09-13T05:10:39;18.10;99.90
53264;DHT22;39153;52.680;6.172;2022-09-13T05:13:04;18.10;99.90
53264;DHT22;39153;52.680;6.172;2022-09-13T05:15:30;18.20;99.90
53264;DHT22;39153;52.680;6.172;2022-09-13T05:17:55;18.20;99.90
53264;DHT22;39153;52.680;6.172;2022-09-13T05:20:21;18.20;99.90
53264;DHT22;39153;52.680;6.172;2022-09-13T05:22:47;18.30;99.90
53264;DHT22;39153;52.680;6.172;2022-09-13T05:25:12;18.30;99.90
53264;DHT22;39153;52.680;6.172;2022-09-13T05:27:38;18.30;99.90
53264;DHT22;39153;52.680;6.172;2022-09-13T05:30:04;18.10;99.90
53264;DHT22;39153;52.680;6.172;2022-09-13T05:32:31;18.10;99.90
53264;DHT22;39153;52.680;6.172;2022-09-13T05:34:56;18.10;99.90
53264;DHT22;39153;52.680;6.172;2022-09-13T05:37:22;18.30;99.90
53264;DHT22;39153;52.680;6.172;2022-09-13T05:39:48;18.20;99.90
53264;DHT22;39153;52.680;6.172;2022-09-13T05:42:13;18.20;99.90
53264;DHT22;39153;52.680;6.172;2022-09-13T05:44:39;18.20;99.90
53264;DHT22;39153;52.680;6.172;2022-09-13T05:47:05;18.00;99.90
53264;DHT22;39153;52.680;6.172;2022-09-13T05:49:31;18.10;99.90
53264;DHT22;39153;52.680;6.172;2022-09-13T05:51:56;18.10;99.90
53264;DHT22;39153;52.680;6.172;2022-09-13T05:54:22;18.10;99.90
53264;DHT22;39153;52.680;6.172;2022-09-13T05:56:47;18.20;99.90
53264;DHT22;39153;52.680;6.172;2022-09-13T05:59:13;18.10;99.90
53264;DHT22;39153;52.680;6.172;2022-09-13T06:01:39;18.10;99.90
53264;DHT22;39153;52.680;6.172;2022-09-13T06:04:05;17.90;99.90
53264;DHT22;39153;52.680;6.172;2022-09-13T06:06:31;18.10;99.90
53264;DHT22;39153;52.680;6.172;2022-09-13T06:08:59;18.00;99.90
53264;DHT22;39153;52.680;6.172;2022-09-13T06:11:25;18.00;99.90
53264;DHT22;39153;52.680;6.172;2022-09-13T06:13:51;18.00;99.90
53264;DHT22;39153;52.680;6.172;2022-09-13T06:16:17;17.90;99.90
53264;DHT22;39153;52.680;6.172;2022-09-13T06:18:43;18.10;99.90
53264;DHT22;39153;52.680;6.172;2022-09-13T06:21:15;18.10;99.90
53264;DHT22;39153;52.680;6.172;2022-09-13T06:23:46;18.10;99.90
53264;DHT22;39153;52.680;6.172;2022-09-13T06:26:14;18.10;99.90
53264;DHT22;39153;52.680;6.172;2022-09-13T06:28:40;18.00;99.90
53264;DHT22;39153;52.680;6.172;2022-09-13T06:31:08;18.20;99.90
53264;DHT22;39153;52.680;6.172;2022-09-13T06:33:37;18.20;99.90
53264;DHT22;39153;52.680;6.172;2022-09-13T06:36:06;18.10;99.90
53264;DHT22;39153;52.680;6.172;2022-09-13T06:38:32;18.10;99.90
53264;DHT22;39153;52.680;6.172;2022-09-13T06:41:03;18.10;99.90
53264;DHT22;39153;52.680;6.172;2022-09-13T06:43:29;18.00;99.90
53264;DHT22;39153;52.680;6.172;2022-09-13T06:46:06;18.20;99.90
53264;DHT22;39153;52.680;6.172;2022-09-13T06:48:34;18.00;99.90
53264;DHT22;39153;52.680;6.172;2022-09-13T06:51:01;18.10;99.90
53264;DHT22;39153;52.680;6.172;2022-09-13T06:53:28;18.10;99.90
53264;DHT22;39153;52.680;6.172;2022-09-13T06:56:05;18.20;99.90
53264;DHT22;39153;52.680;6.172;2022-09-13T06:58:32;18.20;99.90
53264;DHT22;39153;52.680;6.172;2022-09-13T07:01:15;18.10;99.90
53264;DHT22;39153;52.680;6.172;2022-09-13T07:03:43;18.30;99.90
53264;DHT22;39153;52.680;6.172;2022-09-13T07:08:43;18.30;99.90
53264;DHT22;39153;52.680;6.172;2022-09-13T07:11:11;18.10;99.90
53264;DHT22;39153;52.680;6.172;2022-09-13T07:13:37;18.30;99.90
53264;DHT22;39153;52.680;6.172;2022-09-13T07:16:05;18.10;99.90
53264;DHT22;39153;52.680;6.172;2022-09-13T07:18:31;18.30;99.90
53264;DHT22;39153;52.680;6.172;2022-09-13T07:21:05;18.10;99.90
53264;DHT22;39153;52.680;6.172;2022-09-13T07:23:32;18.30;99.90
53264;DHT22;39153;52.680;6.172;2022-09-13T07:25:58;18.20;99.90
53264;DHT22;39153;52.680;6.172;2022-09-13T07:28:28;18.30;99.90
53264;DHT22;39153;52.680;6.172;2022-09-13T07:30:55;18.20;99.90
53264;DHT22;39153;52.680;6.172;2022-09-13T07:33:23;18.20;99.90
53264;DHT22;39153;52.680;6.172;2022-09-13T07:35:56;18.20;99.90
53264;DHT22;39153;52.680;6.172;2022-09-13T07:38:24;18.30;99.90
53264;DHT22;39153;52.680;6.172;2022-09-13T07:40:55;18.50;99.90
53264;DHT22;39153;52.680;6.172;2022-09-13T07:43:25;18.50;99.90
53264;DHT22;39153;52.680;6.172;2022-09-13T07:46:02;18.50;99.90
53264;DHT22;39153;52.680;6.172;2022-09-13T07:48:30;18.60;99.90
53264;DHT22;39153;52.680;6.172;2022-09-13T07:53:26;18.60;99.90
53264;DHT22;39153;52.680;6.172;2022-09-13T07:55:52;18.60;99.90
53264;DHT22;39153;52.680;6.172;2022-09-13T07:58:18;18.60;99.90
53264;DHT22;39153;52.680;6.172;2022-09-13T08:00:44;18.50;99.90
53264;DHT22;39153;52.680;6.172;2022-09-13T08:03:13;18.50;99.90
53264;DHT22;39153;52.680;6.172;2022-09-13T08:05:39;18.40;99.90
53264;DHT22;39153;52.680;6.172;2022-09-13T08:08:05;18.50;99.90
53264;DHT22;39153;52.680;6.172;2022-09-13T08:10:34;18.50;99.90
53264;DHT22;39153;52.680;6.172;2022-09-13T08:13:00;18.70;99.90
53264;DHT22;39153;52.680;6.172;2022-09-13T08:15:26;19.00;99.90
53264;DHT22;39153;52.680;6.172;2022-09-13T08:17:52;19.00;99.90
53264;DHT22;39153;52.680;6.172;2022-09-13T08:20:20;19.20;99.90
53264;DHT22;39153;52.680;6.172;2022-09-13T08:22:47;19.10;99.90
53264;DHT22;39153;52.680;6.172;2022-09-13T08:25:13;19.10;99.90
53264;DHT22;39153;52.680;6.172;2022-09-13T08:27:38;19.00;99.90
53264;DHT22;39153;52.680;6.172;2022-09-13T08:30:04;19.00;99.90
53264;DHT22;39153;52.680;6.172;2022-09-13T08:32:30;19.20;99.90
53264;DHT22;39153;52.680;6.172;2022-09-13T08:34:56;19.30;99.90
53264;DHT22;39153;52.680;6.172;2022-09-13T08:37:22;19.40;99.90
53264;DHT22;39153;52.680;6.172;2022-09-13T08:39:48;19.40;99.90
53264;DHT22;39153;52.680;6.172;2022-09-13T08:42:38;19.20;99.90
53264;DHT22;39153;52.680;6.172;2022-09-13T08:45:09;19.10;99.90
53264;DHT22;39153;52.680;6.172;2022-09-13T08:47:42;19.20;99.90
53264;DHT22;39153;52.680;6.172;2022-09-13T08:50:29;19.30;99.90
53264;DHT22;39153;52.680;6.172;2022-09-13T08:53:07;19.60;99.90
53264;DHT22;39153;52.680;6.172;2022-09-13T08:55:48;19.60;99.90
53264;DHT22;39153;52.680;6.172;2022-09-13T08:58:24;19.90;99.90
53264;DHT22;39153;52.680;6.172;2022-09-13T09:01:06;19.90;99.90
53264;DHT22;39153;52.680;6.172;2022-09-13T09:06:01;20.20;99.90
53264;DHT22;39153;52.680;6.172;2022-09-13T09:08:31;20.40;99.90
53264;DHT22;39153;52.680;6.172;2022-09-13T09:11:04;20.20;99.90
53264;DHT22;39153;52.680;6.172;2022-09-13T09:13:36;20.00;99.90
53264;DHT22;39153;52.680;6.172;2022-09-13T09:18:50;20.10;99.90
53264;DHT22;39153;52.680;6.172;2022-09-13T09:21:17;20.10;99.90
53264;DHT22;39153;52.680;6.172;2022-09-13T09:23:54;20.10;99.90
53264;DHT22;39153;52.680;6.172;2022-09-13T09:26:24;20.40;99.90
53264;DHT22;39153;52.680;6.172;2022-09-13T09:28:58;20.50;99.90
53264;DHT22;39153;52.680;6.172;2022-09-13T09:34:23;20.60;99.90
53264;DHT22;39153;52.680;6.172;2022-09-13T09:37:07;20.70;99.90
53264;DHT22;39153;52.680;6.172;2022-09-13T09:39:36;20.60;99.90
53264;DHT22;39153;52.680;6.172;2022-09-13T09:42:08;20.70;99.90
53264;DHT22;39153;52.680;6.172;2022-09-13T09:44:38;20.90;99.90
53264;DHT22;39153;52.680;6.172;2022-09-13T09:47:15;21.00;99.90
53264;DHT22;39153;52.680;6.172;2022-09-13T09:49:45;21.20;99.90
53264;DHT22;39153;52.680;6.172;2022-09-13T09:53:17;21.20;99.90
53264;DHT22;39153;52.680;6.172;2022-09-13T09:55:30;21.20;99.90
53264;DHT22;39153;52.680;6.172;2022-09-13T09:58:01;21.40;99.90
53264;DHT22;39153;52.680;6.172;2022-09-13T10:00:33;21.50;99.90
53264;DHT22;39153;52.680;6.172;2022-09-13T10:03:15;21.50;99.90
53264;DHT22;39153;52.680;6.172;2022-09-13T10:05:41;21.00;99.90
53264;DHT22;39153;52.680;6.172;2022-09-13T10:08:25;20.70;99.90
53264;DHT22;39153;52.680;6.172;2022-09-13T10:10:54;20.80;99.90
53264;DHT22;39153;52.680;6.172;2022-09-13T10:13:20;21.00;99.90
53264;DHT22;39153;52.680;6.172;2022-09-13T10:15:57;21.10;99.90
53264;DHT22;39153;52.680;6.172;2022-09-13T10:18:25;21.40;99.90
53264;DHT22;39153;52.680;6.172;2022-09-13T10:23:39;21.00;99.90
53264;DHT22;39153;52.680;6.172;2022-09-13T10:26:20;20.70;99.90
53264;DHT22;39153;52.680;6.172;2022-09-13T10:31:36;21.00;99.90
53264;DHT22;39153;52.680;6.172;2022-09-13T10:36:36;20.90;99.90
53264;DHT22;39153;52.680;6.172;2022-09-13T10:39:12;21.10;99.90
53264;DHT22;39153;52.680;6.172;2022-09-13T10:41:58;21.30;99.90
53264;DHT22;39153;52.680;6.172;2022-09-13T10:44:31;21.40;99.90
53264;DHT22;39153;52.680;6.172;2022-09-13T10:47:01;21.60;99.90
53264;DHT22;39153;52.680;6.172;2022-09-13T10:52:00;21.60;99.90
53264;DHT22;39153;52.680;6.172;2022-09-13T10:54:26;21.60;99.90
53264;DHT22;39153;52.680;6.172;2022-09-13T10:56:51;21.70;99.90
53264;DHT22;39153;52.680;6.172;2022-09-13T10:59:25;21.80;99.90
53264;DHT22;39153;52.680;6.172;2022-09-13T11:02:21;22.10;99.90
53264;DHT22;39153;52.680;6.172;2022-09-13T11:11:10;22.00;99.90
53264;DHT22;39153;52.680;6.172;2022-09-13T11:16:36;21.80;99.90
53264;DHT22;39153;52.680;6.172;2022-09-13T11:24:49;21.90;99.90
53264;DHT22;39153;52.680;6.172;2022-09-13T11:30:14;21.70;99.90
53264;DHT22;39153;52.680;6.172;2022-09-13T11:32:55;22.00;99.90
53264;DHT22;39153;52.680;6.172;2022-09-13T11:38:34;22.10;99.90
53264;DHT22;39153;52.680;6.172;2022-09-13T11:44:14;22.50;99.90
53264;DHT22;39153;52.680;6.172;2022-09-13T11:55:21;22.50;99.90
53264;DHT22;39153;52.680;6.172;2022-09-13T11:57:52;22.40;99.90
53264;DHT22;39153;52.680;6.172;2022-09-13T12:00:22;22.50;99.90
53264;DHT22;39153;52.680;6.172;2022-09-13T12:02:56;22.40;99.90
53264;DHT22;39153;52.680;6.172;2022-09-13T12:05:29;22.70;99.90
53264;DHT22;39153;52.680;6.172;2022-09-13T12:10:45;22.90;99.90
53264;DHT22;39153;52.680;6.172;2022-09-13T12:13:40;22.80;99.10
53264;DHT22;39153;52.680;6.172;2022-09-13T12:16:05;23.20;99.00
53264;DHT22;39153;52.680;6.172;2022-09-13T12:18:44;23.40;99.70
53264;DHT22;39153;52.680;6.172;2022-09-13T12:21:13;23.00;99.30
53264;DHT22;39153;52.680;6.172;2022-09-13T12:24:02;23.00;99.90
53264;DHT22;39153;52.680;6.172;2022-09-13T12:26:30;23.20;99.00
53264;DHT22;39153;52.680;6.172;2022-09-13T12:29:04;23.40;99.30
53264;DHT22;39153;52.680;6.172;2022-09-13T12:31:31;23.30;98.70
53264;DHT22;39153;52.680;6.172;2022-09-13T12:33:58;23.30;99.30
53264;DHT22;39153;52.680;6.172;2022-09-13T12:42:56;23.40;99.60
53264;DHT22;39153;52.680;6.172;2022-09-13T12:48:19;23.10;99.00
53264;DHT22;39153;52.680;6.172;2022-09-13T12:54:28;23.10;99.10
53264;DHT22;39153;52.680;6.172;2022-09-13T13:02:29;23.50;98.10
53264;DHT22;39153;52.680;6.172;2022-09-13T13:05:00;23.40;98.00
53264;DHT22;39153;52.680;6.172;2022-09-13T13:07:27;23.30;97.50
53264;DHT22;39153;52.680;6.172;2022-09-13T13:09:56;23.40;96.80
53264;DHT22;39153;52.680;6.172;2022-09-13T13:12:35;23.60;96.80
53264;DHT22;39153;52.680;6.172;2022-09-13T13:15:52;24.00;97.40
53264;DHT22;39153;52.680;6.172;2022-09-13T13:17:54;23.80;96.70
53264;DHT22;39153;52.680;6.172;2022-09-13T13:34:24;24.80;95.60
53264;DHT22;39153;52.680;6.172;2022-09-13T13:36:51;24.40;95.60
53264;DHT22;39153;52.680;6.172;2022-09-13T13:55:02;23.50;96.40
53264;DHT22;39153;52.680;6.172;2022-09-13T14:00:03;23.20;96.80
53264;DHT22;39153;52.680;6.172;2022-09-13T14:08:06;24.40;95.80
53264;DHT22;39153;52.680;6.172;2022-09-13T14:21:37;24.20;95.50
53264;DHT22;39153;52.680;6.172;2022-09-13T14:24:20;24.30;95.50
53264;DHT22;39153;52.680;6.172;2022-09-13T14:26:51;24.40;95.00
53264;DHT22;39153;52.680;6.172;2022-09-13T14:29:19;24.20;95.20
53264;DHT22;39153;52.680;6.172;2022-09-13T14:31:50;23.70;95.50
53264;DHT22;39153;52.680;6.172;2022-09-13T14:34:28;23.70;95.30
53264;DHT22;39153;52.680;6.172;2022-09-13T14:36:56;23.50;96.30
53264;DHT22;39153;52.680;6.172;2022-09-13T14:39:22;23.50;96.20
53264;DHT22;39153;52.680;6.172;2022-09-13T14:42:13;23.50;96.40
53264;DHT22;39153;52.680;6.172;2022-09-13T14:44:48;23.60;95.80
53264;DHT22;39153;52.680;6.172;2022-09-13T14:47:22;23.90;95.60
53264;DHT22;39153;52.680;6.172;2022-09-13T14:49:54;23.70;95.10
53264;DHT22;39153;52.680;6.172;2022-09-13T14:55:19;23.30;96.10
53264;DHT22;39153;52.680;6.172;2022-09-13T14:57:50;22.80;96.40
53264;DHT22;39153;52.680;6.172;2022-09-13T15:00:21;23.00;97.20
53264;DHT22;39153;52.680;6.172;2022-09-13T15:02:49;22.90;97.20
53264;DHT22;39153;52.680;6.172;2022-09-13T15:05:17;22.90;97.40
53264;DHT22;39153;52.680;6.172;2022-09-13T15:07:44;23.10;97.90
53264;DHT22;39153;52.680;6.172;2022-09-13T15:10:22;23.40;98.10
53264;DHT22;39153;52.680;6.172;2022-09-13T15:13:14;23.50;96.80
53264;DHT22;39153;52.680;6.172;2022-09-13T15:15:40;23.20;96.40
53264;DHT22;39153;52.680;6.172;2022-09-13T15:21:02;22.90;97.40
53264;DHT22;39153;52.680;6.172;2022-09-13T15:23:39;22.90;97.00
53264;DHT22;39153;52.680;6.172;2022-09-13T15:26:22;23.20;97.20
53264;DHT22;39153;52.680;6.172;2022-09-13T15:28:52;22.90;97.10
53264;DHT22;39153;52.680;6.172;2022-09-13T15:31:20;22.90;98.00
53264;DHT22;39153;52.680;6.172;2022-09-13T15:33:46;22.70;97.60
53264;DHT22;39153;52.680;6.172;2022-09-13T15:36:26;22.60;97.70
53264;DHT22;39153;52.680;6.172;2022-09-13T15:41:42;22.40;98.20
53264;DHT22;39153;52.680;6.172;2022-09-13T15:44:15;22.60;97.40
53264;DHT22;39153;52.680;6.172;2022-09-13T15:46:50;22.50;97.80
53264;DHT22;39153;52.680;6.172;2022-09-13T15:49:21;22.30;97.70
53264;DHT22;39153;52.680;6.172;2022-09-13T15:51:54;22.10;98.10
53264;DHT22;39153;52.680;6.172;2022-09-13T15:54:20;22.00;98.50
53264;DHT22;39153;52.680;6.172;2022-09-13T15:56:49;22.00;99.00
53264;DHT22;39153;52.680;6.172;2022-09-13T15:59:20;22.00;98.70
53264;DHT22;39153;52.680;6.172;2022-09-13T16:01:50;21.90;98.80
53264;DHT22;39153;52.680;6.172;2022-09-13T16:04:17;21.70;98.40
53264;DHT22;39153;52.680;6.172;2022-09-13T16:06:43;21.80;98.90
53264;DHT22;39153;52.680;6.172;2022-09-13T16:09:23;21.70;98.90
53264;DHT22;39153;52.680;6.172;2022-09-13T16:11:50;21.70;98.90
53264;DHT22;39153;52.680;6.172;2022-09-13T16:14:17;21.70;98.80
53264;DHT22;39153;52.680;6.172;2022-09-13T16:16:44;21.60;98.90
53264;DHT22;39153;52.680;6.172;2022-09-13T16:19:18;21.50;98.80
53264;DHT22;39153;52.680;6.172;2022-09-13T16:21:45;21.50;98.90
53264;DHT22;39153;52.680;6.172;2022-09-13T16:24:11;21.20;99.10
53264;DHT22;39153;52.680;6.172;2022-09-13T16:26:37;21.20;99.30
53264;DHT22;39153;52.680;6.172;2022-09-13T16:29:04;21.10;99.10
53264;DHT22;39153;52.680;6.172;2022-09-13T16:31:30;21.30;99.30
53264;DHT22;39153;52.680;6.172;2022-09-13T16:33:55;21.30;99.20
53264;DHT22;39153;52.680;6.172;2022-09-13T16:36:21;21.20;99.60
53264;DHT22;39153;52.680;6.172;2022-09-13T16:38:47;21.10;99.80
53264;DHT22;39153;52.680;6.172;2022-09-13T16:41:13;21.10;99.80
53264;DHT22;39153;52.680;6.172;2022-09-13T16:43:39;21.00;99.80
53264;DHT22;39153;52.680;6.172;2022-09-13T16:46:09;20.90;99.90
53264;DHT22;39153;52.680;6.172;2022-09-13T16:48:35;20.80;99.90
53264;DHT22;39153;52.680;6.172;2022-09-13T16:51:07;20.70;99.90
53264;DHT22;39153;52.680;6.172;2022-09-13T16:53:35;20.70;99.90
53264;DHT22;39153;52.680;6.172;2022-09-13T16:56:09;20.60;99.90
53264;DHT22;39153;52.680;6.172;2022-09-13T16:58:39;20.60;99.90
53264;DHT22;39153;52.680;6.172;2022-09-13T17:01:06;20.50;99.90
53264;DHT22;39153;52.680;6.172;2022-09-13T17:03:33;20.30;99.90
53264;DHT22;39153;52.680;6.172;2022-09-13T17:06:03;20.40;99.90
53264;DHT22;39153;52.680;6.172;2022-09-13T17:08:29;20.20;99.90
53264;DHT22;39153;52.680;6.172;2022-09-13T17:10:55;20.10;99.90
53264;DHT22;39153;52.680;6.172;2022-09-13T17:13:21;20.20;99.90
53264;DHT22;39153;52.680;6.172;2022-09-13T17:15:47;20.10;99.90
53264;DHT22;39153;52.680;6.172;2022-09-13T17:18:13;20.00;99.90
53264;DHT22;39153;52.680;6.172;2022-09-13T17:20:43;19.90;99.90
53264;DHT22;39153;52.680;6.172;2022-09-13T17:23:09;19.70;99.90
53264;DHT22;39153;52.680;6.172;2022-09-13T17:25:35;19.70;99.90
53264;DHT22;39153;52.680;6.172;2022-09-13T17:28:00;19.60;99.90
53264;DHT22;39153;52.680;6.172;2022-09-13T17:30:26;19.50;99.90
53264;DHT22;39153;52.680;6.172;2022-09-13T17:32:52;19.40;99.90
53264;DHT22;39153;52.680;6.172;2022-09-13T17:35:17;19.40;99.90
53264;DHT22;39153;52.680;6.172;2022-09-13T17:37:43;19.40;99.90
53264;DHT22;39153;52.680;6.172;2022-09-13T17:40:09;19.20;99.90
53264;DHT22;39153;52.680;6.172;2022-09-13T17:42:35;19.20;99.90
53264;DHT22;39153;52.680;6.172;2022-09-13T17:45:00;19.20;99.90
53264;DHT22;39153;52.680;6.172;2022-09-13T17:47:26;19.20;99.90
53264;DHT22;39153;52.680;6.172;2022-09-13T17:49:52;19.00;99.90
53264;DHT22;39153;52.680;6.172;2022-09-13T17:52:18;19.00;99.90
53264;DHT22;39153;52.680;6.172;2022-09-13T17:54:43;18.90;99.90
53264;DHT22;39153;52.680;6.172;2022-09-13T17:57:10;18.80;99.90
53264;DHT22;39153;52.680;6.172;2022-09-13T17:59:39;18.80;99.90
53264;DHT22;39153;52.680;6.172;2022-09-13T18:02:05;18.70;99.90
53264;DHT22;39153;52.680;6.172;2022-09-13T18:04:31;18.60;99.90
53264;DHT22;39153;52.680;6.172;2022-09-13T18:06:57;18.60;99.90
53264;DHT22;39153;52.680;6.172;2022-09-13T18:09:22;18.70;99.90
53264;DHT22;39153;52.680;6.172;2022-09-13T18:11:49;18.60;99.90
53264;DHT22;39153;52.680;6.172;2022-09-13T18:14:16;18.60;99.90
53264;DHT22;39153;52.680;6.172;2022-09-13T18:16:43;18.60;99.90
53264;DHT22;39153;52.680;6.172;2022-09-13T18:19:09;18.50;99.90
53264;DHT22;39153;52.680;6.172;2022-09-13T18:21:36;18.50;99.90
53264;DHT22;39153;52.680;6.172;2022-09-13T18:24:02;18.40;99.90
53264;DHT22;39153;52.680;6.172;2022-09-13T18:26:29;18.40;99.90
53264;DHT22;39153;52.680;6.172;2022-09-13T18:29:06;18.30;99.90
53264;DHT22;39153;52.680;6.172;2022-09-13T18:31:34;18.30;99.90
53264;DHT22;39153;52.680;6.172;2022-09-13T18:34:07;18.30;99.90
53264;DHT22;39153;52.680;6.172;2022-09-13T18:36:34;18.20;99.90
53264;DHT22;39153;52.680;6.172;2022-09-13T18:39:01;18.10;99.90
53264;DHT22;39153;52.680;6.172;2022-09-13T18:41:36;18.10;99.90
53264;DHT22;39153;52.680;6.172;2022-09-13T18:44:04;18.10;99.90
53264;DHT22;39153;52.680;6.172;2022-09-13T18:46:32;18.10;99.90
53264;DHT22;39153;52.680;6.172;2022-09-13T18:48:59;18.10;99.90
53264;DHT22;39153;52.680;6.172;2022-09-13T18:51:27;17.90;99.90
53264;DHT22;39153;52.680;6.172;2022-09-13T18:53:53;17.80;99.90
53264;DHT22;39153;52.680;6.172;2022-09-13T18:56:21;17.80;99.90
53264;DHT22;39153;52.680;6.172;2022-09-13T18:58:48;17.70;99.90